sensor_id;sensor_type;location;lat;lon;timestamp;P1;durP1;ratioP1;P2;durP2;ratioP2
80159;SDS011;69486;59.082;37.928;2023-05-29T00:01:23;8.13;;;2.85;;
80159;SDS011;69486;59.082;37.928;2023-05-29T00:03:49;9.95;;;2.95;;
80159;SDS011;69486;59.082;37.928;2023-05-29T00:06:15;18.60;;;2.70;;
80159;SDS011;69486;59.082;37.928;2023-05-29T00:08:40;6.00;;;2.65;;
80159;SDS011;69486;59.082;37.928;2023-05-29T00:11:06;10.75;;;3.53;;
80159;SDS011;69486;59.082;37.928;2023-05-29T00:13:32;10.13;;;2.83;;
80159;SDS011;69486;59.082;37.928;2023-05-29T00:16:00;11.65;;;3.45;;
80159;SDS011;69486;59.082;37.928;2023-05-29T00:18:26;16.58;;;3.00;;
80159;SDS011;69486;59.082;37.928;2023-05-29T00:20:52;9.05;;;3.03;;
80159;SDS011;69486;59.082;37.928;2023-05-29T00:23:18;12.98;;;3.17;;
80159;SDS011;69486;59.082;37.928;2023-05-29T00:25:44;8.90;;;2.90;;
80159;SDS011;69486;59.082;37.928;2023-05-29T00:28:10;12.60;;;2.75;;
80159;SDS011;69486;59.082;37.928;2023-05-29T00:30:37;10.15;;;2.28;;
80159;SDS011;69486;59.082;37.928;2023-05-29T00:33:05;15.35;;;3.05;;
80159;SDS011;69486;59.082;37.928;2023-05-29T00:35:31;14.13;;;2.90;;
80159;SDS011;69486;59.082;37.928;2023-05-29T00:37:57;14.93;;;3.30;;
80159;SDS011;69486;59.082;37.928;2023-05-29T00:40:23;19.27;;;3.13;;
80159;SDS011;69486;59.082;37.928;2023-05-29T00:42:49;14.20;;;2.67;;
80159;SDS011;69486;59.082;37.928;2023-05-29T00:45:15;14.32;;;3.47;;
80159;SDS011;69486;59.082;37.928;2023-05-29T00:47:41;9.35;;;3.50;;
80159;SDS011;69486;59.082;37.928;2023-05-29T00:50:10;18.02;;;4.07;;
80159;SDS011;69486;59.082;37.928;2023-05-29T00:52:36;15.85;;;3.83;;
80159;SDS011;69486;59.082;37.928;2023-05-29T00:55:02;12.43;;;3.50;;
80159;SDS011;69486;59.082;37.928;2023-05-29T00:57:28;14.05;;;3.08;;
80159;SDS011;69486;59.082;37.928;2023-05-29T00:59:55;17.92;;;4.10;;
80159;SDS011;69486;59.082;37.928;2023-05-29T01:02:21;12.13;;;3.05;;
80159;SDS011;69486;59.082;37.928;2023-05-29T01:04:47;17.20;;;3.60;;
80159;SDS011;69486;59.082;37.928;2023-05-29T01:07:13;13.82;;;3.53;;
80159;SDS011;69486;59.082;37.928;2023-05-29T01:09:39;16.75;;;3.35;;
80159;SDS011;69486;59.082;37.928;2023-05-29T01:17:24;10.73;;;2.65;;
80159;SDS011;69486;59.082;37.928;2023-05-29T01:27:18;10.80;;;2.47;;
80159;SDS011;69486;59.082;37.928;2023-05-29T01:29:44;10.05;;;2.70;;
80159;SDS011;69486;59.082;37.928;2023-05-29T01:32:11;14.25;;;2.72;;
80159;SDS011;69486;59.082;37.928;2023-05-29T01:34:37;12.07;;;2.95;;
80159;SDS011;69486;59.082;37.928;2023-05-29T01:37:03;12.90;;;2.90;;
80159;SDS011;69486;59.082;37.928;2023-05-29T01:39:30;14.68;;;3.67;;
80159;SDS011;69486;59.082;37.928;2023-05-29T01:41:57;8.57;;;2.95;;
80159;SDS011;69486;59.082;37.928;2023-05-29T01:44:23;10.05;;;2.72;;
80159;SDS011;69486;59.082;37.928;2023-05-29T01:46:50;11.25;;;2.95;;
80159;SDS011;69486;59.082;37.928;2023-05-29T01:49:16;10.23;;;4.07;;
80159;SDS011;69486;59.082;37.928;2023-05-29T01:51:42;11.70;;;2.67;;
80159;SDS011;69486;59.082;37.928;2023-05-29T01:54:08;9.15;;;2.95;;
80159;SDS011;69486;59.082;37.928;2023-05-29T01:56:33;16.13;;;3.67;;
80159;SDS011;69486;59.082;37.928;2023-05-29T01:59:00;13.30;;;4.35;;
80159;SDS011;69486;59.082;37.928;2023-05-29T02:01:27;15.27;;;4.43;;
80159;SDS011;69486;59.082;37.928;2023-05-29T02:03:52;9.90;;;2.90;;
80159;SDS011;69486;59.082;37.928;2023-05-29T02:06:18;13.43;;;2.60;;
80159;SDS011;69486;59.082;37.928;2023-05-29T02:08:44;11.05;;;2.22;;
80159;SDS011;69486;59.082;37.928;2023-05-29T02:11:12;7.28;;;2.25;;
80159;SDS011;69486;59.082;37.928;2023-05-29T02:13:41;9.63;;;2.33;;
80159;SDS011;69486;59.082;37.928;2023-05-29T02:16:07;6.95;;;2.40;;
80159;SDS011;69486;59.082;37.928;2023-05-29T02:18:33;8.48;;;2.50;;
80159;SDS011;69486;59.082;37.928;2023-05-29T02:20:59;4.72;;;2.17;;
80159;SDS011;69486;59.082;37.928;2023-05-29T02:23:25;11.82;;;3.13;;
80159;SDS011;69486;59.082;37.928;2023-05-29T02:25:51;8.07;;;2.28;;
80159;SDS011;69486;59.082;37.928;2023-05-29T02:28:17;12.80;;;3.05;;
80159;SDS011;69486;59.082;37.928;2023-05-29T02:30:43;11.15;;;2.78;;
80159;SDS011;69486;59.082;37.928;2023-05-29T02:33:08;15.23;;;2.92;;
80159;SDS011;69486;59.082;37.928;2023-05-29T02:35:34;11.63;;;2.50;;
80159;SDS011;69486;59.082;37.928;2023-05-29T02:38:00;6.60;;;1.42;;
80159;SDS011;69486;59.082;37.928;2023-05-29T02:40:25;1.30;;;0.85;;
80159;SDS011;69486;59.082;37.928;2023-05-29T02:42:51;3.97;;;0.90;;
80159;SDS011;69486;59.082;37.928;2023-05-29T02:45:20;3.38;;;0.75;;
80159;SDS011;69486;59.082;37.928;2023-05-29T02:47:45;0.80;;;0.60;;
80159;SDS011;69486;59.082;37.928;2023-05-29T02:50:11;0.88;;;0.70;;
80159;SDS011;69486;59.082;37.928;2023-05-29T02:52:36;1.15;;;0.60;;
80159;SDS011;69486;59.082;37.928;2023-05-29T02:55:02;1.27;;;0.88;;
80159;SDS011;69486;59.082;37.928;2023-05-29T02:57:29;1.55;;;0.80;;
80159;SDS011;69486;59.082;37.928;2023-05-29T02:59:55;1.75;;;0.75;;
80159;SDS011;69486;59.082;37.928;2023-05-29T03:02:23;1.90;;;0.93;;
80159;SDS011;69486;59.082;37.928;2023-05-29T03:04:49;1.38;;;0.95;;
80159;SDS011;69486;59.082;37.928;2023-05-29T03:07:16;4.50;;;0.95;;
80159;SDS011;69486;59.082;37.928;2023-05-29T03:09:41;1.50;;;0.75;;
80159;SDS011;69486;59.082;37.928;2023-05-29T03:12:07;2.70;;;1.17;;
80159;SDS011;69486;59.082;37.928;2023-05-29T03:14:33;1.98;;;1.10;;
80159;SDS011;69486;59.082;37.928;2023-05-29T03:17:03;1.38;;;0.98;;
80159;SDS011;69486;59.082;37.928;2023-05-29T03:19:29;2.00;;;0.80;;
80159;SDS011;69486;59.082;37.928;2023-05-29T03:21:54;1.98;;;0.80;;
80159;SDS011;69486;59.082;37.928;2023-05-29T03:24:20;2.97;;;0.85;;
80159;SDS011;69486;59.082;37.928;2023-05-29T03:26:46;5.38;;;1.15;;
80159;SDS011;69486;59.082;37.928;2023-05-29T03:29:11;2.30;;;1.00;;
80159;SDS011;69486;59.082;37.928;2023-05-29T03:31:37;4.72;;;1.00;;
80159;SDS011;69486;59.082;37.928;2023-05-29T03:34:02;4.90;;;1.25;;
80159;SDS011;69486;59.082;37.928;2023-05-29T03:36:28;2.08;;;0.90;;
80159;SDS011;69486;59.082;37.928;2023-05-29T03:38:54;1.60;;;0.93;;
80159;SDS011;69486;59.082;37.928;2023-05-29T03:41:19;1.70;;;0.80;;
80159;SDS011;69486;59.082;37.928;2023-05-29T03:43:45;2.38;;;1.10;;
80159;SDS011;69486;59.082;37.928;2023-05-29T03:46:11;2.17;;;0.98;;
80159;SDS011;69486;59.082;37.928;2023-05-29T03:48:36;2.40;;;1.00;;
80159;SDS011;69486;59.082;37.928;2023-05-29T03:51:02;3.97;;;1.08;;
80159;SDS011;69486;59.082;37.928;2023-05-29T03:53:31;3.75;;;0.90;;
80159;SDS011;69486;59.082;37.928;2023-05-29T03:55:56;2.17;;;0.90;;
80159;SDS011;69486;59.082;37.928;2023-05-29T03:58:22;1.42;;;0.70;;
80159;SDS011;69486;59.082;37.928;2023-05-29T04:00:48;1.73;;;0.88;;
80159;SDS011;69486;59.082;37.928;2023-05-29T04:03:13;1.20;;;0.80;;
80159;SDS011;69486;59.082;37.928;2023-05-29T04:05:40;2.58;;;0.90;;
80159;SDS011;69486;59.082;37.928;2023-05-29T04:08:06;1.90;;;1.00;;
80159;SDS011;69486;59.082;37.928;2023-05-29T04:10:36;2.67;;;0.90;;
80159;SDS011;69486;59.082;37.928;2023-05-29T04:13:02;3.58;;;0.85;;
80159;SDS011;69486;59.082;37.928;2023-05-29T04:15:28;0.88;;;0.75;;
80159;SDS011;69486;59.082;37.928;2023-05-29T04:17:54;3.20;;;0.98;;
80159;SDS011;69486;59.082;37.928;2023-05-29T04:20:20;1.92;;;0.70;;
80159;SDS011;69486;59.082;37.928;2023-05-29T04:22:45;1.45;;;0.80;;
80159;SDS011;69486;59.082;37.928;2023-05-29T04:25:11;1.23;;;0.60;;
80159;SDS011;69486;59.082;37.928;2023-05-29T04:27:37;1.67;;;0.70;;
80159;SDS011;69486;59.082;37.928;2023-05-29T04:30:05;0.88;;;0.80;;
80159;SDS011;69486;59.082;37.928;2023-05-29T04:32:31;0.55;;;0.55;;
80159;SDS011;69486;59.082;37.928;2023-05-29T04:34:58;1.05;;;0.60;;
80159;SDS011;69486;59.082;37.928;2023-05-29T04:37:28;0.82;;;0.45;;
80159;SDS011;69486;59.082;37.928;2023-05-29T04:39:55;2.92;;;0.50;;
80159;SDS011;69486;59.082;37.928;2023-05-29T04:42:21;2.35;;;0.73;;
80159;SDS011;69486;59.082;37.928;2023-05-29T04:44:48;0.90;;;0.80;;
80159;SDS011;69486;59.082;37.928;2023-05-29T04:47:14;2.17;;;0.65;;
80159;SDS011;69486;59.082;37.928;2023-05-29T04:49:41;1.83;;;0.50;;
80159;SDS011;69486;59.082;37.928;2023-05-29T04:52:07;2.42;;;0.50;;
80159;SDS011;69486;59.082;37.928;2023-05-29T04:54:33;1.00;;;0.50;;
80159;SDS011;69486;59.082;37.928;2023-05-29T04:56:59;4.95;;;0.63;;
80159;SDS011;69486;59.082;37.928;2023-05-29T04:59:26;6.47;;;0.80;;
80159;SDS011;69486;59.082;37.928;2023-05-29T05:01:52;6.65;;;0.57;;
80159;SDS011;69486;59.082;37.928;2023-05-29T05:04:17;3.90;;;0.55;;
80159;SDS011;69486;59.082;37.928;2023-05-29T05:06:43;0.35;;;0.35;;
80159;SDS011;69486;59.082;37.928;2023-05-29T05:09:09;5.78;;;0.93;;
80159;SDS011;69486;59.082;37.928;2023-05-29T05:11:35;1.02;;;0.35;;
80159;SDS011;69486;59.082;37.928;2023-05-29T05:14:00;0.47;;;0.40;;
80159;SDS011;69486;59.082;37.928;2023-05-29T05:16:26;12.27;;;5.07;;
80159;SDS011;69486;59.082;37.928;2023-05-29T05:18:52;0.95;;;0.50;;
80159;SDS011;69486;59.082;37.928;2023-05-29T05:21:17;0.40;;;0.40;;
80159;SDS011;69486;59.082;37.928;2023-05-29T05:23:43;0.70;;;0.45;;
80159;SDS011;69486;59.082;37.928;2023-05-29T05:26:09;0.60;;;0.52;;
80159;SDS011;69486;59.082;37.928;2023-05-29T05:28:34;0.65;;;0.50;;
80159;SDS011;69486;59.082;37.928;2023-05-29T05:31:01;0.40;;;0.40;;
80159;SDS011;69486;59.082;37.928;2023-05-29T05:33:27;2.25;;;0.35;;
80159;SDS011;69486;59.082;37.928;2023-05-29T05:35:55;0.50;;;0.50;;
80159;SDS011;69486;59.082;37.928;2023-05-29T05:38:21;1.27;;;0.40;;
80159;SDS011;69486;59.082;37.928;2023-05-29T05:40:47;3.92;;;0.50;;
80159;SDS011;69486;59.082;37.928;2023-05-29T05:43:12;1.52;;;0.50;;
80159;SDS011;69486;59.082;37.928;2023-05-29T05:45:38;0.68;;;0.40;;
80159;SDS011;69486;59.082;37.928;2023-05-29T05:48:07;2.50;;;0.57;;
80159;SDS011;69486;59.082;37.928;2023-05-29T05:50:34;1.40;;;0.60;;
80159;SDS011;69486;59.082;37.928;2023-05-29T05:52:59;3.08;;;0.55;;
80159;SDS011;69486;59.082;37.928;2023-05-29T05:55:25;0.95;;;0.60;;
80159;SDS011;69486;59.082;37.928;2023-05-29T05:57:53;0.68;;;0.30;;
80159;SDS011;69486;59.082;37.928;2023-05-29T06:00:19;0.75;;;0.43;;
80159;SDS011;69486;59.082;37.928;2023-05-29T06:02:45;0.63;;;0.50;;
80159;SDS011;69486;59.082;37.928;2023-05-29T06:05:11;2.38;;;0.47;;
80159;SDS011;69486;59.082;37.928;2023-05-29T06:07:37;0.43;;;0.30;;
80159;SDS011;69486;59.082;37.928;2023-05-29T06:10:03;0.70;;;0.50;;
80159;SDS011;69486;59.082;37.928;2023-05-29T06:12:30;2.67;;;0.57;;
80159;SDS011;69486;59.082;37.928;2023-05-29T06:14:56;4.10;;;2.45;;
80159;SDS011;69486;59.082;37.928;2023-05-29T06:17:22;7.82;;;5.22;;
80159;SDS011;69486;59.082;37.928;2023-05-29T06:19:49;2.95;;;1.80;;
80159;SDS011;69486;59.082;37.928;2023-05-29T06:22:15;7.93;;;5.07;;
80159;SDS011;69486;59.082;37.928;2023-05-29T06:24:41;0.70;;;0.70;;
80159;SDS011;69486;59.082;37.928;2023-05-29T06:27:07;1.17;;;0.60;;
80159;SDS011;69486;59.082;37.928;2023-05-29T06:29:33;0.40;;;0.40;;
80159;SDS011;69486;59.082;37.928;2023-05-29T06:31:59;2.42;;;0.63;;
80159;SDS011;69486;59.082;37.928;2023-05-29T06:34:26;2.03;;;0.60;;
80159;SDS011;69486;59.082;37.928;2023-05-29T06:36:52;1.95;;;0.50;;
80159;SDS011;69486;59.082;37.928;2023-05-29T06:39:18;0.88;;;0.55;;
80159;SDS011;69486;59.082;37.928;2023-05-29T06:41:45;1.60;;;0.90;;
80159;SDS011;69486;59.082;37.928;2023-05-29T06:44:11;0.95;;;0.60;;
80159;SDS011;69486;59.082;37.928;2023-05-29T06:46:37;0.65;;;0.43;;
80159;SDS011;69486;59.082;37.928;2023-05-29T06:49:03;1.10;;;0.50;;
80159;SDS011;69486;59.082;37.928;2023-05-29T06:51:29;1.58;;;0.47;;
80159;SDS011;69486;59.082;37.928;2023-05-29T06:53:55;0.55;;;0.55;;
80159;SDS011;69486;59.082;37.928;2023-05-29T06:56:21;0.40;;;0.40;;
80159;SDS011;69486;59.082;37.928;2023-05-29T06:58:47;0.70;;;0.60;;
80159;SDS011;69486;59.082;37.928;2023-05-29T07:04:20;1.95;;;0.60;;
80159;SDS011;69486;59.082;37.928;2023-05-29T07:06:46;1.45;;;0.63;;
80159;SDS011;69486;59.082;37.928;2023-05-29T07:09:12;1.85;;;0.47;;
80159;SDS011;69486;59.082;37.928;2023-05-29T07:11:38;0.50;;;0.40;;
80159;SDS011;69486;59.082;37.928;2023-05-29T07:14:04;0.50;;;0.40;;
80159;SDS011;69486;59.082;37.928;2023-05-29T07:16:29;0.60;;;0.32;;
80159;SDS011;69486;59.082;37.928;2023-05-29T07:18:55;1.13;;;0.50;;
80159;SDS011;69486;59.082;37.928;2023-05-29T07:21:21;1.10;;;0.32;;
80159;SDS011;69486;59.082;37.928;2023-05-29T07:23:47;0.77;;;0.45;;
80159;SDS011;69486;59.082;37.928;2023-05-29T07:26:13;0.77;;;0.75;;
80159;SDS011;69486;59.082;37.928;2023-05-29T07:28:39;3.55;;;0.90;;
80159;SDS011;69486;59.082;37.928;2023-05-29T07:31:05;3.63;;;0.60;;
80159;SDS011;69486;59.082;37.928;2023-05-29T07:33:31;3.13;;;0.60;;
80159;SDS011;69486;59.082;37.928;2023-05-29T07:35:56;0.52;;;0.52;;
80159;SDS011;69486;59.082;37.928;2023-05-29T07:38:22;0.82;;;0.50;;
80159;SDS011;69486;59.082;37.928;2023-05-29T07:40:48;2.78;;;0.73;;
80159;SDS011;69486;59.082;37.928;2023-05-29T07:43:14;1.27;;;0.57;;
80159;SDS011;69486;59.082;37.928;2023-05-29T07:45:40;3.25;;;0.40;;
80159;SDS011;69486;59.082;37.928;2023-05-29T07:48:06;0.40;;;0.30;;
80159;SDS011;69486;59.082;37.928;2023-05-29T07:50:32;2.40;;;0.30;;
80159;SDS011;69486;59.082;37.928;2023-05-29T07:52:59;0.77;;;0.40;;
80159;SDS011;69486;59.082;37.928;2023-05-29T07:55:24;0.73;;;0.40;;
80159;SDS011;69486;59.082;37.928;2023-05-29T07:57:50;1.00;;;0.50;;
80159;SDS011;69486;59.082;37.928;2023-05-29T08:00:16;1.40;;;0.50;;
80159;SDS011;69486;59.082;37.928;2023-05-29T08:02:42;0.30;;;0.30;;
80159;SDS011;69486;59.082;37.928;2023-05-29T08:05:09;1.25;;;0.45;;
80159;SDS011;69486;59.082;37.928;2023-05-29T08:07:36;0.90;;;0.50;;
80159;SDS011;69486;59.082;37.928;2023-05-29T08:10:01;0.68;;;0.40;;
80159;SDS011;69486;59.082;37.928;2023-05-29T08:12:28;0.80;;;0.30;;
80159;SDS011;69486;59.082;37.928;2023-05-29T08:14:53;2.03;;;0.50;;
80159;SDS011;69486;59.082;37.928;2023-05-29T08:17:19;0.60;;;0.50;;
80159;SDS011;69486;59.082;37.928;2023-05-29T08:19:45;0.40;;;0.40;;
80159;SDS011;69486;59.082;37.928;2023-05-29T08:22:12;0.50;;;0.45;;
80159;SDS011;69486;59.082;37.928;2023-05-29T08:24:39;1.15;;;0.50;;
80159;SDS011;69486;59.082;37.928;2023-05-29T08:27:05;0.55;;;0.40;;
80159;SDS011;69486;59.082;37.928;2023-05-29T08:29:31;3.30;;;0.60;;
80159;SDS011;69486;59.082;37.928;2023-05-29T08:31:57;0.40;;;0.40;;
80159;SDS011;69486;59.082;37.928;2023-05-29T08:34:23;0.82;;;0.30;;
80159;SDS011;69486;59.082;37.928;2023-05-29T08:36:48;1.10;;;0.55;;
80159;SDS011;69486;59.082;37.928;2023-05-29T08:39:17;0.90;;;0.47;;
80159;SDS011;69486;59.082;37.928;2023-05-29T08:42:04;1.75;;;0.40;;
80159;SDS011;69486;59.082;37.928;2023-05-29T08:44:32;0.77;;;0.47;;
80159;SDS011;69486;59.082;37.928;2023-05-29T08:47:00;0.57;;;0.47;;
80159;SDS011;69486;59.082;37.928;2023-05-29T08:49:27;0.57;;;0.57;;
80159;SDS011;69486;59.082;37.928;2023-05-29T08:51:57;2.63;;;0.50;;
80159;SDS011;69486;59.082;37.928;2023-05-29T08:54:29;1.55;;;0.63;;
80159;SDS011;69486;59.082;37.928;2023-05-29T08:56:56;0.30;;;0.25;;
80159;SDS011;69486;59.082;37.928;2023-05-29T08:59:24;0.30;;;0.30;;
80159;SDS011;69486;59.082;37.928;2023-05-29T09:01:51;0.70;;;0.50;;
80159;SDS011;69486;59.082;37.928;2023-05-29T09:04:17;1.27;;;0.40;;
80159;SDS011;69486;59.082;37.928;2023-05-29T09:06:43;2.40;;;0.40;;
80159;SDS011;69486;59.082;37.928;2023-05-29T09:09:11;0.43;;;0.30;;
80159;SDS011;69486;59.082;37.928;2023-05-29T09:11:37;0.88;;;0.40;;
80159;SDS011;69486;59.082;37.928;2023-05-29T09:14:03;0.30;;;0.30;;
80159;SDS011;69486;59.082;37.928;2023-05-29T09:16:29;1.25;;;0.40;;
80159;SDS011;69486;59.082;37.928;2023-05-29T09:19:04;1.52;;;0.30;;
80159;SDS011;69486;59.082;37.928;2023-05-29T09:21:30;0.52;;;0.30;;
80159;SDS011;69486;59.082;37.928;2023-05-29T09:24:03;0.38;;;0.30;;
80159;SDS011;69486;59.082;37.928;2023-05-29T09:26:29;1.30;;;0.60;;
80159;SDS011;69486;59.082;37.928;2023-05-29T09:28:55;1.25;;;0.70;;
80159;SDS011;69486;59.082;37.928;2023-05-29T09:31:21;0.38;;;0.38;;
80159;SDS011;69486;59.082;37.928;2023-05-29T09:33:47;1.95;;;0.50;;
80159;SDS011;69486;59.082;37.928;2023-05-29T09:36:23;3.55;;;0.52;;
80159;SDS011;69486;59.082;37.928;2023-05-29T09:38:51;0.55;;;0.38;;
80159;SDS011;69486;59.082;37.928;2023-05-29T09:41:20;1.80;;;0.40;;
80159;SDS011;69486;59.082;37.928;2023-05-29T09:43:50;0.60;;;0.50;;
80159;SDS011;69486;59.082;37.928;2023-05-29T09:46:16;0.57;;;0.40;;
80159;SDS011;69486;59.082;37.928;2023-05-29T09:48:45;1.30;;;0.50;;
80159;SDS011;69486;59.082;37.928;2023-05-29T09:51:21;2.00;;;0.50;;
80159;SDS011;69486;59.082;37.928;2023-05-29T09:53:50;2.70;;;0.50;;
80159;SDS011;69486;59.082;37.928;2023-05-29T09:56:17;1.95;;;0.50;;
80159;SDS011;69486;59.082;37.928;2023-05-29T09:58:43;1.65;;;0.40;;
80159;SDS011;69486;59.082;37.928;2023-05-29T10:01:16;1.05;;;0.60;;
80159;SDS011;69486;59.082;37.928;2023-05-29T10:03:42;0.43;;;0.40;;
80159;SDS011;69486;59.082;37.928;2023-05-29T10:06:09;0.93;;;0.50;;
80159;SDS011;69486;59.082;37.928;2023-05-29T10:08:47;1.15;;;0.30;;
80159;SDS011;69486;59.082;37.928;2023-05-29T10:11:17;0.60;;;0.45;;
80159;SDS011;69486;59.082;37.928;2023-05-29T10:13:47;0.82;;;0.30;;
80159;SDS011;69486;59.082;37.928;2023-05-29T10:16:15;1.88;;;1.00;;
80159;SDS011;69486;59.082;37.928;2023-05-29T10:18:43;0.40;;;0.30;;
80159;SDS011;69486;59.082;37.928;2023-05-29T10:21:11;0.98;;;0.50;;
80159;SDS011;69486;59.082;37.928;2023-05-29T10:23:38;0.95;;;0.40;;
80159;SDS011;69486;59.082;37.928;2023-05-29T10:26:14;3.30;;;0.32;;
80159;SDS011;69486;59.082;37.928;2023-05-29T10:28:43;0.60;;;0.28;;
80159;SDS011;69486;59.082;37.928;2023-05-29T10:31:14;0.63;;;0.40;;
80159;SDS011;69486;59.082;37.928;2023-05-29T10:36:14;0.40;;;0.30;;
80159;SDS011;69486;59.082;37.928;2023-05-29T10:38:44;3.90;;;0.40;;
80159;SDS011;69486;59.082;37.928;2023-05-29T10:43:55;0.95;;;0.25;;
80159;SDS011;69486;59.082;37.928;2023-05-29T10:46:21;3.08;;;0.30;;
80159;SDS011;69486;59.082;37.928;2023-05-29T10:48:51;0.65;;;0.30;;
80159;SDS011;69486;59.082;37.928;2023-05-29T10:51:26;0.95;;;0.38;;
80159;SDS011;69486;59.082;37.928;2023-05-29T10:53:52;1.30;;;0.40;;
80159;SDS011;69486;59.082;37.928;2023-05-29T10:56:22;0.88;;;0.30;;
80159;SDS011;69486;59.082;37.928;2023-05-29T10:58:52;1.02;;;0.50;;
80159;SDS011;69486;59.082;37.928;2023-05-29T11:01:23;0.60;;;0.40;;
80159;SDS011;69486;59.082;37.928;2023-05-29T11:03:50;0.57;;;0.30;;
80159;SDS011;69486;59.082;37.928;2023-05-29T11:06:19;3.28;;;0.30;;
80159;SDS011;69486;59.082;37.928;2023-05-29T11:08:46;0.95;;;0.50;;
80159;SDS011;69486;59.082;37.928;2023-05-29T11:11:13;0.70;;;0.30;;
80159;SDS011;69486;59.082;37.928;2023-05-29T11:13:39;0.77;;;0.40;;
80159;SDS011;69486;59.082;37.928;2023-05-29T11:16:10;1.80;;;0.40;;
80159;SDS011;69486;59.082;37.928;2023-05-29T11:18:40;1.85;;;0.30;;
80159;SDS011;69486;59.082;37.928;2023-05-29T11:21:11;0.88;;;0.22;;
80159;SDS011;69486;59.082;37.928;2023-05-29T11:23:38;1.35;;;0.57;;
80159;SDS011;69486;59.082;37.928;2023-05-29T11:26:08;1.95;;;0.60;;
80159;SDS011;69486;59.082;37.928;2023-05-29T11:28:35;2.85;;;1.63;;
80159;SDS011;69486;59.082;37.928;2023-05-29T11:31:01;4.05;;;1.45;;
80159;SDS011;69486;59.082;37.928;2023-05-29T11:33:33;3.33;;;0.75;;
80159;SDS011;69486;59.082;37.928;2023-05-29T11:36:01;2.83;;;0.50;;
80159;SDS011;69486;59.082;37.928;2023-05-29T11:38:28;0.80;;;0.50;;
80159;SDS011;69486;59.082;37.928;2023-05-29T11:40:54;1.42;;;0.40;;
80159;SDS011;69486;59.082;37.928;2023-05-29T11:43:20;1.17;;;0.40;;
80159;SDS011;69486;59.082;37.928;2023-05-29T11:45:46;0.63;;;0.20;;
80159;SDS011;69486;59.082;37.928;2023-05-29T11:48:12;0.73;;;0.30;;
80159;SDS011;69486;59.082;37.928;2023-05-29T11:50:38;0.47;;;0.30;;
80159;SDS011;69486;59.082;37.928;2023-05-29T11:53:05;1.65;;;0.30;;
80159;SDS011;69486;59.082;37.928;2023-05-29T11:55:32;0.47;;;0.35;;
80159;SDS011;69486;59.082;37.928;2023-05-29T11:58:02;0.75;;;0.28;;
80159;SDS011;69486;59.082;37.928;2023-05-29T12:00:32;2.70;;;0.50;;
80159;SDS011;69486;59.082;37.928;2023-05-29T12:02:58;2.75;;;0.52;;
80159;SDS011;69486;59.082;37.928;2023-05-29T12:05:29;1.90;;;0.47;;
80159;SDS011;69486;59.082;37.928;2023-05-29T12:07:55;1.45;;;0.40;;
80159;SDS011;69486;59.082;37.928;2023-05-29T12:10:28;0.98;;;0.32;;
80159;SDS011;69486;59.082;37.928;2023-05-29T12:12:55;1.00;;;0.30;;
80159;SDS011;69486;59.082;37.928;2023-05-29T12:15:21;1.05;;;0.40;;
80159;SDS011;69486;59.082;37.928;2023-05-29T12:17:48;1.08;;;0.30;;
80159;SDS011;69486;59.082;37.928;2023-05-29T12:20:15;3.75;;;0.77;;
80159;SDS011;69486;59.082;37.928;2023-05-29T12:22:41;1.10;;;0.88;;
80159;SDS011;69486;59.082;37.928;2023-05-29T12:25:11;1.98;;;0.30;;
80159;SDS011;69486;59.082;37.928;2023-05-29T12:27:38;0.43;;;0.30;;
80159;SDS011;69486;59.082;37.928;2023-05-29T12:30:12;2.00;;;0.40;;
80159;SDS011;69486;59.082;37.928;2023-05-29T12:32:41;3.25;;;0.40;;
80159;SDS011;69486;59.082;37.928;2023-05-29T12:37:43;0.95;;;0.50;;
80159;SDS011;69486;59.082;37.928;2023-05-29T12:40:23;0.98;;;0.77;;
80159;SDS011;69486;59.082;37.928;2023-05-29T12:43:00;0.60;;;0.30;;
80159;SDS011;69486;59.082;37.928;2023-05-29T12:45:27;15.27;;;7.60;;
80159;SDS011;69486;59.082;37.928;2023-05-29T12:47:56;3.22;;;2.45;;
80159;SDS011;69486;59.082;37.928;2023-05-29T12:52:55;2.30;;;0.47;;
80159;SDS011;69486;59.082;37.928;2023-05-29T12:55:21;0.77;;;0.40;;
80159;SDS011;69486;59.082;37.928;2023-05-29T12:57:47;2.47;;;0.40;;
80159;SDS011;69486;59.082;37.928;2023-05-29T13:00:13;2.60;;;0.95;;
80159;SDS011;69486;59.082;37.928;2023-05-29T13:02:39;1.25;;;0.45;;
80159;SDS011;69486;59.082;37.928;2023-05-29T13:05:06;1.48;;;0.45;;
80159;SDS011;69486;59.082;37.928;2023-05-29T13:07:33;5.20;;;0.30;;
80159;SDS011;69486;59.082;37.928;2023-05-29T13:09:59;1.17;;;0.60;;
80159;SDS011;69486;59.082;37.928;2023-05-29T13:12:25;0.73;;;0.20;;
80159;SDS011;69486;59.082;37.928;2023-05-29T13:14:51;0.80;;;0.40;;
80159;SDS011;69486;59.082;37.928;2023-05-29T13:17:17;1.52;;;0.55;;
80159;SDS011;69486;59.082;37.928;2023-05-29T13:19:43;3.90;;;0.52;;
80159;SDS011;69486;59.082;37.928;2023-05-29T13:22:09;3.65;;;0.30;;
80159;SDS011;69486;59.082;37.928;2023-05-29T13:24:35;1.08;;;0.50;;
80159;SDS011;69486;59.082;37.928;2023-05-29T13:27:01;1.50;;;0.55;;
80159;SDS011;69486;59.082;37.928;2023-05-29T13:29:27;1.38;;;0.30;;
80159;SDS011;69486;59.082;37.928;2023-05-29T13:31:53;2.10;;;0.95;;
80159;SDS011;69486;59.082;37.928;2023-05-29T13:34:19;1.98;;;0.68;;
80159;SDS011;69486;59.082;37.928;2023-05-29T13:36:45;2.20;;;0.50;;
80159;SDS011;69486;59.082;37.928;2023-05-29T13:39:11;1.75;;;0.60;;
80159;SDS011;69486;59.082;37.928;2023-05-29T13:41:37;3.80;;;0.70;;
80159;SDS011;69486;59.082;37.928;2023-05-29T13:44:03;7.63;;;0.70;;
80159;SDS011;69486;59.082;37.928;2023-05-29T13:46:29;2.65;;;0.50;;
80159;SDS011;69486;59.082;37.928;2023-05-29T13:48:55;3.55;;;0.50;;
80159;SDS011;69486;59.082;37.928;2023-05-29T13:51:21;1.42;;;0.57;;
80159;SDS011;69486;59.082;37.928;2023-05-29T13:53:47;2.75;;;0.68;;
80159;SDS011;69486;59.082;37.928;2023-05-29T13:56:12;1.73;;;0.80;;
80159;SDS011;69486;59.082;37.928;2023-05-29T13:58:38;1.80;;;0.68;;
80159;SDS011;69486;59.082;37.928;2023-05-29T14:01:04;2.83;;;1.42;;
80159;SDS011;69486;59.082;37.928;2023-05-29T14:03:30;4.55;;;0.63;;
80159;SDS011;69486;59.082;37.928;2023-05-29T14:05:57;4.10;;;0.70;;
80159;SDS011;69486;59.082;37.928;2023-05-29T14:08:22;1.70;;;0.88;;
80159;SDS011;69486;59.082;37.928;2023-05-29T14:10:48;2.03;;;0.80;;
80159;SDS011;69486;59.082;37.928;2023-05-29T14:13:16;3.13;;;1.33;;
80159;SDS011;69486;59.082;37.928;2023-05-29T14:15:42;8.52;;;0.85;;
80159;SDS011;69486;59.082;37.928;2023-05-29T14:18:08;5.10;;;0.88;;
80159;SDS011;69486;59.082;37.928;2023-05-29T14:20:34;4.22;;;0.82;;
80159;SDS011;69486;59.082;37.928;2023-05-29T14:22:59;1.88;;;0.70;;
80159;SDS011;69486;59.082;37.928;2023-05-29T14:25:25;2.88;;;0.80;;
80159;SDS011;69486;59.082;37.928;2023-05-29T14:27:51;1.42;;;0.85;;
80159;SDS011;69486;59.082;37.928;2023-05-29T14:30:17;1.58;;;0.68;;
80159;SDS011;69486;59.082;37.928;2023-05-29T14:32:43;2.45;;;1.00;;
80159;SDS011;69486;59.082;37.928;2023-05-29T14:35:09;4.20;;;0.93;;
80159;SDS011;69486;59.082;37.928;2023-05-29T14:37:35;3.30;;;0.88;;
80159;SDS011;69486;59.082;37.928;2023-05-29T14:40:01;2.58;;;0.80;;
80159;SDS011;69486;59.082;37.928;2023-05-29T14:42:27;4.82;;;1.10;;
80159;SDS011;69486;59.082;37.928;2023-05-29T14:44:53;2.60;;;0.85;;
80159;SDS011;69486;59.082;37.928;2023-05-29T14:47:19;2.05;;;1.00;;
80159;SDS011;69486;59.082;37.928;2023-05-29T14:49:45;3.35;;;0.95;;
80159;SDS011;69486;59.082;37.928;2023-05-29T14:52:10;3.03;;;1.20;;
80159;SDS011;69486;59.082;37.928;2023-05-29T14:54:37;3.83;;;0.70;;
80159;SDS011;69486;59.082;37.928;2023-05-29T14:57:03;2.75;;;0.85;;